createdAt,value
2018-12-17T00:00:50.039Z,56.64
2018-12-17T00:01:50.206Z,63.96
2018-12-17T00:02:50.379Z,50.54
2018-12-17T00:03:50.545Z,44.92
2018-12-17T00:04:50.719Z,49.80
2018-12-17T00:05:50.886Z,51.27
2018-12-17T00:06:51.060Z,47.85
2018-12-17T00:07:51.231Z,45.90
2018-12-17T00:08:51.396Z,46.88
2018-12-17T00:09:51.579Z,48.58
2018-12-17T00:10:51.742Z,46.14
2018-12-17T00:11:51.905Z,57.62
2018-12-17T00:12:52.086Z,59.81
2018-12-17T00:13:52.263Z,46.63
2018-12-17T00:14:52.421Z,45.17
2018-12-17T00:15:52.590Z,44.68
2018-12-17T00:16:52.765Z,44.19
2018-12-17T00:17:52.931Z,47.85
2018-12-17T00:18:53.102Z,47.61
2018-12-17T00:19:53.271Z,43.95
2018-12-17T00:20:53.442Z,44.19
2018-12-17T00:21:53.612Z,50.54
2018-12-17T00:22:53.783Z,45.17
2018-12-17T00:23:53.954Z,47.12
2018-12-17T00:24:54.124Z,45.65
2018-12-17T00:25:54.295Z,47.12
2018-12-17T00:26:54.467Z,55.91
2018-12-17T00:27:54.646Z,54.69
2018-12-17T00:28:54.808Z,45.41
2018-12-17T00:29:54.977Z,44.92
2018-12-17T00:30:55.152Z,58.59
2018-12-17T00:31:55.330Z,53.47
2018-12-17T00:32:55.499Z,44.92
2018-12-17T00:33:55.661Z,44.92
2018-12-17T00:34:55.832Z,44.92
2018-12-17T00:35:56.002Z,45.90
2018-12-17T00:36:56.172Z,45.90
2018-12-17T00:37:56.342Z,45.41
2018-12-17T00:38:56.515Z,61.28
2018-12-17T00:39:56.682Z,46.39
2018-12-17T00:40:56.848Z,45.41
2018-12-17T00:41:57.018Z,44.68
2018-12-17T00:42:57.188Z,47.85
2018-12-17T00:43:57.368Z,45.90
2018-12-17T00:44:57.528Z,60.55
2018-12-17T00:45:57.716Z,57.37
2018-12-17T00:46:57.877Z,56.15
2018-12-17T00:47:58.045Z,45.65
2018-12-17T00:48:58.214Z,45.17
2018-12-17T00:49:58.385Z,45.90
2018-12-17T00:50:58.557Z,47.36
2018-12-17T00:51:58.728Z,59.33
2018-12-17T00:52:58.898Z,46.39
2018-12-17T00:53:59.066Z,50.05
2018-12-17T00:54:59.236Z,45.90
2018-12-17T00:55:59.412Z,57.37
2018-12-17T00:56:59.588Z,60.30
2018-12-17T00:57:59.757Z,45.17
2018-12-17T00:58:59.920Z,46.63
2018-12-17T01:00:00.097Z,45.17
2018-12-17T01:01:00.262Z,44.68
2018-12-17T01:02:00.432Z,44.68
2018-12-17T01:03:00.606Z,44.68
2018-12-17T01:04:00.772Z,47.36
2018-12-17T01:05:00.944Z,46.14
2018-12-17T01:07:01.277Z,47.12
2018-12-17T01:09:01.612Z,59.81
2018-12-17T01:10:01.783Z,48.83
2018-12-17T01:11:01.953Z,48.83
2018-12-17T01:12:02.123Z,45.17
2018-12-17T01:13:02.300Z,52.00
2018-12-17T01:14:02.465Z,55.91
2018-12-17T01:15:02.638Z,57.13
2018-12-17T01:16:02.808Z,45.65
2018-12-17T01:17:02.978Z,46.39
2018-12-17T01:18:03.152Z,52.25
2018-12-17T01:19:03.321Z,47.85
2018-12-17T01:20:03.518Z,47.61
2018-12-17T01:21:03.665Z,46.88
2018-12-17T01:22:03.828Z,47.12
2018-12-17T01:23:04.003Z,48.83
2018-12-17T01:24:04.176Z,47.12
2018-12-17T01:25:04.343Z,47.61
2018-12-17T01:26:04.517Z,48.58
2018-12-17T01:27:04.684Z,48.34
2018-12-17T01:28:04.872Z,48.58
2018-12-17T01:29:05.024Z,46.63
2018-12-17T01:30:05.192Z,46.88
2018-12-17T01:31:05.369Z,57.13
2018-12-17T01:32:05.534Z,46.88
2018-12-17T01:33:05.702Z,46.63
2018-12-17T01:34:05.872Z,48.83
2018-12-17T01:35:06.044Z,48.34
2018-12-17T01:36:06.220Z,47.61
2018-12-17T01:37:06.386Z,46.39
2018-12-17T01:38:06.559Z,52.25
2018-12-17T01:39:06.735Z,53.96
2018-12-17T01:40:06.906Z,46.88
2018-12-17T01:41:07.073Z,64.70
2018-12-17T01:42:07.247Z,45.90
2018-12-17T01:43:07.416Z,45.41
2018-12-17T01:44:07.591Z,45.90
2018-12-17T01:45:07.768Z,56.64
2018-12-17T01:46:07.933Z,52.25
2018-12-17T01:47:08.104Z,53.22
2018-12-17T01:48:08.279Z,54.44
2018-12-17T01:49:08.445Z,46.88
2018-12-17T01:50:08.617Z,47.12
2018-12-17T01:51:08.786Z,63.23
2018-12-17T01:52:08.956Z,49.56
2018-12-17T01:53:09.127Z,47.12
2018-12-17T01:54:09.297Z,46.39
2018-12-17T01:55:09.468Z,49.07
2018-12-17T01:56:09.639Z,47.85
2018-12-17T01:57:09.807Z,55.18
2018-12-17T01:58:09.978Z,51.27
2018-12-17T01:59:10.151Z,47.61
2018-12-17T02:00:10.323Z,52.49
2018-12-17T02:01:10.492Z,51.03
2018-12-17T02:02:10.662Z,49.56
2018-12-17T02:03:10.841Z,50.05
2018-12-17T02:04:11.004Z,60.06
2018-12-17T02:05:11.176Z,45.90
2018-12-17T02:06:11.351Z,47.61
2018-12-17T02:07:11.519Z,56.88
2018-12-17T02:08:11.689Z,59.57
2018-12-17T02:09:11.861Z,55.66
2018-12-17T02:10:12.029Z,48.83
2018-12-17T02:11:12.198Z,50.05
2018-12-17T02:12:12.373Z,49.07
2018-12-17T02:13:12.541Z,48.10
2018-12-17T02:14:12.711Z,54.20
2018-12-17T02:15:12.882Z,49.07
2018-12-17T02:16:13.053Z,56.15
2018-12-17T02:17:13.221Z,59.57
2018-12-17T02:18:13.393Z,49.07
2018-12-17T02:19:13.564Z,47.61
2018-12-17T02:20:13.731Z,47.36
2018-12-17T02:21:13.914Z,47.12
2018-12-17T02:22:14.075Z,47.36
2018-12-17T02:23:14.246Z,47.61
2018-12-17T02:24:14.424Z,61.52
2018-12-17T02:25:14.590Z,51.27
2018-12-17T02:26:14.755Z,59.08
2018-12-17T02:27:14.929Z,62.74
2018-12-17T02:28:15.103Z,52.98
2018-12-17T02:29:15.270Z,47.36
2018-12-17T02:30:15.440Z,48.10
2018-12-17T02:31:15.611Z,61.28
2018-12-17T02:32:15.784Z,49.56
2018-12-17T02:33:15.951Z,49.56
2018-12-17T02:34:16.118Z,45.90
2018-12-17T02:35:16.287Z,46.88
2018-12-17T02:36:16.456Z,55.91
2018-12-17T02:37:16.655Z,48.83
2018-12-17T02:38:16.799Z,53.71
2018-12-17T02:39:16.977Z,51.03
2018-12-17T02:40:17.142Z,57.37
2018-12-17T02:41:17.309Z,55.91
2018-12-17T02:42:17.479Z,47.12
2018-12-17T02:43:17.651Z,49.07
2018-12-17T02:44:17.822Z,55.91
2018-12-17T02:45:17.992Z,48.10
2018-12-17T02:46:18.162Z,52.98
2018-12-17T02:47:18.339Z,50.78
2018-12-17T02:48:18.506Z,47.36
2018-12-17T02:49:18.688Z,50.78
2018-12-17T02:50:18.853Z,53.71
2018-12-17T02:51:19.015Z,61.04
2018-12-17T02:52:19.181Z,47.12
2018-12-17T02:53:19.358Z,66.41
2018-12-17T02:54:19.523Z,47.61
2018-12-17T02:55:19.692Z,55.18
2018-12-17T02:56:19.866Z,61.52
2018-12-17T02:57:20.040Z,62.50
2018-12-17T02:58:20.218Z,63.96
2018-12-17T02:59:20.389Z,71.29
2018-12-17T03:00:20.550Z,48.10
2018-12-17T03:01:20.720Z,52.25
2018-12-17T03:02:20.895Z,49.07
2018-12-17T03:03:21.065Z,46.14
2018-12-17T03:04:21.235Z,48.10
2018-12-17T03:05:21.408Z,60.55
2018-12-17T03:06:21.579Z,50.05
2018-12-17T03:07:21.746Z,50.29
2018-12-17T03:08:21.922Z,50.54
2018-12-17T03:09:22.091Z,51.76
2018-12-17T03:10:22.261Z,48.58
2018-12-17T03:11:22.436Z,49.07
2018-12-17T03:12:22.607Z,58.35
2018-12-17T03:13:22.776Z,54.69
2018-12-17T03:14:22.944Z,48.34
2018-12-17T03:15:23.120Z,48.34
2018-12-17T03:16:23.293Z,50.29
2018-12-17T03:17:23.460Z,49.80
2018-12-17T03:18:23.632Z,49.07
2018-12-17T03:19:23.806Z,49.56
2018-12-17T03:20:23.981Z,63.72
2018-12-17T03:21:24.148Z,63.72
2018-12-17T03:22:24.317Z,52.98
2018-12-17T03:23:24.488Z,57.86
2018-12-17T03:24:24.660Z,58.84
2018-12-17T03:25:24.831Z,65.43
2018-12-17T03:26:24.998Z,49.07
2018-12-17T03:27:25.173Z,53.22
2018-12-17T03:28:25.345Z,52.49
2018-12-17T03:29:25.550Z,54.44
2018-12-17T03:30:25.685Z,53.96
2018-12-17T03:31:25.865Z,53.47
2018-12-17T03:32:26.025Z,53.22
2018-12-17T03:33:26.194Z,50.05
2018-12-17T03:34:26.367Z,50.05
2018-12-17T03:35:26.540Z,49.32
2018-12-17T03:36:26.710Z,48.34
2018-12-17T03:37:26.877Z,49.07
2018-12-17T03:38:27.049Z,53.47
2018-12-17T03:39:27.220Z,49.80
2018-12-17T03:40:27.391Z,48.58
2018-12-17T03:41:27.562Z,53.71
2018-12-17T03:42:27.738Z,52.73
2018-12-17T03:43:27.906Z,49.56
2018-12-17T03:44:28.078Z,48.58
2018-12-17T03:45:28.248Z,50.78
2018-12-17T03:46:28.417Z,50.29
2018-12-17T03:47:28.592Z,58.84
2018-12-17T03:48:28.807Z,52.00
2018-12-17T03:49:28.927Z,51.27
2018-12-17T03:50:29.104Z,52.73
2018-12-17T03:51:29.270Z,62.74
2018-12-17T03:52:29.449Z,62.01
2018-12-17T03:53:29.727Z,52.00
2018-12-17T03:54:29.788Z,50.78
2018-12-17T03:55:29.955Z,49.32
2018-12-17T03:56:30.126Z,49.80
2018-12-17T03:57:30.298Z,56.15
2018-12-17T03:58:30.466Z,49.07
2018-12-17T03:59:30.643Z,49.56
2018-12-17T04:00:30.812Z,75.93
2018-12-17T04:01:30.985Z,62.01
2018-12-17T04:02:31.156Z,59.08
2018-12-17T04:03:31.329Z,62.74
2018-12-17T04:04:31.500Z,55.91
2018-12-17T04:05:31.671Z,60.79
2018-12-17T04:06:31.841Z,50.78
2018-12-17T04:07:32.029Z,48.83
2018-12-17T04:08:32.183Z,49.56
2018-12-17T04:09:32.355Z,48.34
2018-12-17T04:10:32.525Z,47.36
2018-12-17T04:11:32.694Z,48.58
2018-12-17T04:12:32.875Z,52.00
2018-12-17T04:13:33.064Z,51.27
2018-12-17T04:14:33.208Z,48.58
2018-12-17T04:15:33.382Z,55.42
2018-12-17T04:16:33.552Z,48.34
2018-12-17T04:17:33.722Z,47.36
2018-12-17T04:18:33.892Z,55.66
2018-12-17T04:19:34.065Z,55.91
2018-12-17T04:20:34.234Z,70.56
2018-12-17T04:21:34.408Z,63.96
2018-12-17T04:22:34.578Z,60.06
2018-12-17T04:23:34.750Z,56.40
2018-12-17T04:24:34.923Z,65.19
2018-12-17T04:25:35.094Z,51.03
2018-12-17T04:26:35.266Z,71.29
2018-12-17T04:27:35.438Z,50.29
2018-12-17T04:28:35.612Z,47.36
2018-12-17T04:29:35.781Z,48.10
2018-12-17T04:30:36.011Z,48.10
2018-12-17T04:31:36.122Z,51.27
2018-12-17T04:32:36.295Z,68.60
2018-12-17T04:33:36.464Z,60.79
2018-12-17T04:34:36.642Z,49.80
2018-12-17T04:35:36.808Z,55.66
2018-12-17T04:36:36.980Z,48.34
2018-12-17T04:37:37.151Z,50.54
2018-12-17T04:38:37.320Z,49.56
2018-12-17T04:39:37.492Z,48.34
2018-12-17T04:40:37.662Z,48.83
2018-12-17T04:41:37.836Z,48.58
2018-12-17T04:42:38.005Z,49.80
2018-12-17T04:43:38.190Z,49.80
2018-12-17T04:44:38.364Z,49.80
2018-12-17T04:45:38.522Z,67.63
2018-12-17T04:46:38.691Z,49.56
2018-12-17T04:47:38.866Z,55.42
2018-12-17T04:48:39.030Z,50.05
2018-12-17T04:49:39.212Z,60.06
2018-12-17T04:50:39.376Z,70.56
2018-12-17T04:51:39.549Z,70.56
2018-12-17T04:52:39.719Z,71.29
2018-12-17T04:53:39.893Z,56.15
2018-12-17T04:54:40.068Z,50.78
2018-12-17T04:55:40.233Z,48.58
2018-12-17T04:56:40.402Z,50.54
2018-12-17T04:57:40.576Z,58.35
2018-12-17T04:58:40.746Z,56.40
2018-12-17T04:59:40.913Z,50.54
2018-12-17T05:00:41.086Z,69.58
2018-12-17T05:01:41.263Z,54.93
2018-12-17T05:02:41.440Z,55.18
2018-12-17T05:03:41.597Z,51.27
2018-12-17T05:04:41.770Z,59.81
2018-12-17T05:05:41.943Z,63.96
2018-12-17T05:06:42.118Z,51.27
2018-12-17T05:07:42.286Z,48.83
2018-12-17T05:08:42.455Z,50.05
2018-12-17T05:09:44.399Z,53.22
2018-12-17T05:10:42.810Z,48.58
2018-12-17T05:11:43.016Z,66.89
2018-12-17T05:12:43.141Z,61.52
2018-12-17T05:13:43.316Z,54.69
2018-12-17T05:14:43.489Z,52.25
2018-12-17T05:15:43.661Z,68.12
2018-12-17T05:16:43.836Z,52.73
2018-12-17T05:17:44.005Z,50.78
2018-12-17T05:18:44.174Z,56.64
2018-12-17T05:19:44.347Z,69.82
2018-12-17T05:20:44.517Z,56.88
2018-12-17T05:21:44.694Z,54.69
2018-12-17T05:22:44.866Z,61.04
2018-12-17T05:23:45.033Z,51.76
2018-12-17T05:24:45.205Z,51.03
2018-12-17T05:25:45.379Z,50.05
2018-12-17T05:26:45.550Z,51.76
2018-12-17T05:27:45.720Z,61.04
2018-12-17T05:28:45.893Z,62.74
2018-12-17T05:29:46.078Z,55.66
2018-12-17T05:30:46.234Z,69.34
2018-12-17T05:31:46.411Z,61.28
2018-12-17T05:32:46.826Z,51.51
2018-12-17T05:33:46.752Z,62.99
2018-12-17T05:34:46.923Z,56.88
2018-12-17T05:35:47.092Z,52.73
2018-12-17T05:36:47.261Z,52.49
2018-12-17T05:37:47.430Z,52.00
2018-12-17T05:38:47.601Z,56.64
2018-12-17T05:39:47.782Z,52.00
2018-12-17T05:40:47.942Z,52.25
2018-12-17T05:41:48.116Z,54.20
2018-12-17T05:42:48.284Z,71.78
2018-12-17T05:43:48.456Z,74.46
2018-12-17T05:44:48.626Z,70.31
2018-12-17T05:45:48.798Z,67.14
2018-12-17T05:46:48.971Z,61.77
2018-12-17T05:47:49.141Z,62.50
2018-12-17T05:48:49.317Z,69.09
2018-12-17T05:49:49.489Z,54.20
2018-12-17T05:50:49.658Z,56.15
2018-12-17T05:51:49.822Z,62.26
2018-12-17T05:52:49.990Z,64.21
2018-12-17T05:53:50.160Z,61.52
2018-12-17T05:54:50.329Z,63.48
2018-12-17T05:55:50.500Z,64.21
2018-12-17T05:56:50.667Z,67.63
2018-12-17T05:57:50.844Z,67.63
2018-12-17T05:58:51.009Z,59.08
2018-12-17T05:59:51.183Z,61.28
2018-12-17T06:00:51.356Z,81.30
2018-12-17T06:01:51.534Z,81.79
2018-12-17T06:02:51.701Z,82.03
2018-12-17T06:03:51.871Z,80.57
2018-12-17T06:04:52.043Z,81.05
2018-12-17T06:05:52.213Z,81.05
2018-12-17T06:06:52.387Z,53.96
2018-12-17T06:07:52.553Z,65.92
2018-12-17T06:08:52.726Z,57.86
2018-12-17T06:09:52.895Z,56.88
2018-12-17T06:10:53.065Z,59.08
2018-12-17T06:11:53.236Z,61.77
2018-12-17T06:12:53.411Z,56.40
2018-12-17T06:13:53.579Z,56.64
2018-12-17T06:14:53.751Z,59.33
2018-12-17T06:15:53.922Z,70.07
2018-12-17T06:16:54.095Z,57.62
2018-12-17T06:17:54.263Z,54.44
2018-12-17T06:18:54.435Z,62.01
2018-12-17T06:19:54.607Z,60.79
2018-12-17T06:20:54.780Z,59.08
2018-12-17T06:21:54.959Z,58.84
2018-12-17T06:22:55.117Z,57.62
2018-12-17T06:23:55.323Z,70.56
2018-12-17T06:24:55.460Z,61.28
2018-12-17T06:25:55.631Z,60.06
2018-12-17T06:26:55.808Z,55.91
2018-12-17T06:27:55.978Z,61.77
2018-12-17T06:28:56.136Z,52.25
2018-12-17T06:29:56.307Z,57.86
2018-12-17T06:30:56.479Z,67.87
2018-12-17T06:31:56.656Z,58.84
2018-12-17T06:32:56.820Z,55.91
2018-12-17T06:33:56.993Z,60.55
2018-12-17T06:34:57.172Z,59.08
2018-12-17T06:35:57.338Z,63.48
2018-12-17T06:36:57.512Z,61.04
2018-12-17T06:37:57.681Z,52.98
2018-12-17T06:38:57.850Z,64.94
2018-12-17T06:39:58.019Z,67.14
2018-12-17T06:40:58.189Z,81.30
2018-12-17T06:41:58.366Z,75.20
2018-12-17T06:42:58.531Z,60.30
2018-12-17T06:43:58.702Z,65.43
2018-12-17T06:44:58.872Z,65.67
2018-12-17T06:45:59.051Z,68.12
2018-12-17T06:46:59.228Z,65.43
2018-12-17T06:47:59.388Z,82.28
2018-12-17T06:48:59.561Z,66.65
2018-12-17T06:49:59.735Z,70.31
2018-12-17T06:50:59.906Z,56.15
2018-12-17T06:52:00.076Z,64.45
2018-12-17T06:53:00.250Z,64.70
2018-12-17T06:54:00.418Z,66.16
2018-12-17T06:55:00.593Z,64.45
2018-12-17T06:56:00.764Z,71.78
2018-12-17T06:57:00.942Z,60.79
2018-12-17T06:58:01.109Z,65.92
2018-12-17T06:59:01.282Z,65.92
2018-12-17T07:00:01.453Z,62.01
2018-12-17T07:01:01.626Z,68.60
2018-12-17T07:02:01.796Z,68.85
2018-12-17T07:03:01.963Z,70.31
2018-12-17T07:04:02.128Z,74.46
2018-12-17T07:05:02.303Z,67.63
2018-12-17T07:06:02.472Z,60.79
2018-12-17T07:07:02.645Z,58.84
2018-12-17T07:08:02.827Z,68.12
2018-12-17T07:09:02.989Z,63.48
2018-12-17T07:10:03.162Z,71.04
2018-12-17T07:11:03.334Z,66.16
2018-12-17T07:12:03.512Z,71.53
2018-12-17T07:13:03.685Z,60.55
2018-12-17T07:14:03.842Z,62.74
2018-12-17T07:16:04.184Z,72.02
2018-12-17T07:17:04.354Z,69.58
2018-12-17T07:18:04.534Z,69.34
2018-12-17T07:19:04.695Z,73.97
2018-12-17T07:20:04.866Z,70.07
2018-12-17T07:21:05.046Z,60.79
2018-12-17T07:22:05.198Z,74.22
2018-12-17T07:23:05.371Z,62.99
2018-12-17T07:24:05.545Z,75.44
2018-12-17T07:25:05.716Z,67.38
2018-12-17T07:26:05.886Z,61.04
2018-12-17T07:27:06.064Z,62.50
2018-12-17T07:28:06.230Z,73.00
2018-12-17T07:29:06.401Z,84.47
2018-12-17T07:30:06.576Z,93.02
2018-12-17T07:31:06.746Z,81.05
2018-12-17T07:32:06.919Z,97.41
2018-12-17T07:33:07.091Z,84.96
2018-12-17T07:34:07.266Z,76.42
2018-12-17T07:35:07.433Z,77.88
2018-12-17T07:36:07.609Z,72.27
2018-12-17T07:37:07.776Z,78.37
2018-12-17T07:38:07.946Z,75.44
2018-12-17T07:39:08.122Z,83.25
2018-12-17T07:40:08.292Z,82.76
2018-12-17T07:41:08.470Z,85.69
2018-12-17T07:42:08.649Z,93.02
2018-12-17T07:43:08.805Z,84.72
2018-12-17T07:44:08.974Z,95.95
2018-12-17T07:45:09.149Z,81.05
2018-12-17T07:46:09.316Z,83.74
2018-12-17T07:47:09.503Z,79.10
2018-12-17T07:48:09.674Z,91.31
2018-12-17T07:49:09.852Z,89.11
2018-12-17T07:50:10.026Z,83.98
2018-12-17T07:51:10.196Z,83.74
2018-12-17T07:52:10.368Z,95.21
2018-12-17T07:53:10.539Z,79.35
2018-12-17T07:54:10.718Z,83.98
2018-12-17T07:55:10.882Z,85.21
2018-12-17T07:56:11.059Z,82.28
2018-12-17T07:57:11.231Z,84.47
2018-12-17T07:58:11.398Z,92.04
2018-12-17T07:59:11.575Z,85.69
2018-12-17T08:00:11.741Z,69.58
2018-12-17T08:01:11.912Z,88.13
2018-12-17T08:02:12.093Z,82.03
2018-12-17T08:03:12.256Z,70.07
2018-12-17T08:04:12.433Z,64.94
2018-12-17T08:05:12.603Z,67.14
2018-12-17T08:06:12.776Z,65.43
2018-12-17T08:07:12.956Z,61.04
2018-12-17T08:08:13.119Z,73.00
2018-12-17T08:09:13.289Z,63.72
2018-12-17T08:10:13.462Z,70.56
2018-12-17T08:11:13.633Z,70.07
2018-12-17T08:12:13.803Z,62.50
2018-12-17T08:13:13.981Z,65.19
2018-12-17T08:14:14.155Z,62.26
2018-12-17T08:15:14.323Z,71.29
2018-12-17T08:16:14.493Z,73.97
2018-12-17T08:17:14.668Z,78.61
2018-12-17T08:18:14.851Z,70.07
2018-12-17T08:19:15.013Z,60.79
2018-12-17T08:20:15.182Z,62.26
2018-12-17T08:21:15.357Z,61.77
2018-12-17T08:22:15.524Z,63.96
2018-12-17T08:23:15.696Z,66.65
2018-12-17T08:24:15.867Z,63.72
2018-12-17T08:25:16.043Z,70.80
2018-12-17T08:26:16.207Z,76.90
2018-12-17T08:27:16.381Z,73.73
2018-12-17T08:28:16.554Z,71.04
2018-12-17T08:29:16.727Z,77.15
2018-12-17T08:30:16.906Z,71.53
2018-12-17T08:31:17.069Z,72.02
2018-12-17T08:32:17.242Z,65.92
2018-12-17T08:33:17.414Z,72.02
2018-12-17T08:34:17.586Z,66.89
2018-12-17T08:35:17.760Z,71.78
2018-12-17T08:36:17.933Z,69.58
2018-12-17T08:37:18.105Z,67.14
2018-12-17T08:38:18.289Z,66.65
2018-12-17T08:39:18.448Z,65.92
2018-12-17T08:40:18.621Z,63.48
2018-12-17T08:41:18.795Z,68.60
2018-12-17T08:42:18.971Z,66.89
2018-12-17T08:43:19.138Z,65.67
2018-12-17T08:44:19.314Z,71.29
2018-12-17T08:45:19.484Z,74.22
2018-12-17T08:46:19.646Z,65.19
2018-12-17T08:47:19.825Z,69.58
2018-12-17T08:48:19.996Z,74.95
2018-12-17T08:49:20.169Z,68.60
2018-12-17T08:50:20.335Z,74.46
2018-12-17T08:51:20.511Z,69.09
2018-12-17T08:52:20.679Z,73.97
2018-12-17T08:53:20.854Z,68.60
2018-12-17T08:54:21.037Z,69.82
2018-12-17T08:55:21.198Z,63.23
2018-12-17T08:56:21.368Z,65.19
2018-12-17T08:57:21.541Z,67.14
2018-12-17T08:58:21.727Z,61.77
2018-12-17T08:59:21.884Z,70.56
2018-12-17T09:00:22.059Z,73.00
2018-12-17T09:01:22.230Z,67.87
2018-12-17T09:02:22.409Z,68.85
2018-12-17T09:03:22.577Z,74.22
2018-12-17T09:04:22.746Z,67.63
2018-12-17T09:05:22.921Z,68.36
2018-12-17T09:06:23.094Z,67.63
2018-12-17T09:07:23.267Z,73.24
2018-12-17T09:08:23.436Z,73.24
2018-12-17T09:09:23.614Z,64.45
2018-12-17T09:10:23.780Z,73.49
2018-12-17T09:11:23.946Z,77.64
2018-12-17T09:12:24.125Z,75.44
2018-12-17T09:13:24.288Z,69.82
2018-12-17T09:14:24.458Z,67.14
2018-12-17T09:15:24.629Z,69.58
2018-12-17T09:16:24.807Z,70.07
2018-12-17T09:17:24.979Z,67.63
2018-12-17T09:18:25.142Z,69.82
2018-12-17T09:19:25.315Z,69.34
2018-12-17T09:20:25.560Z,71.04
2018-12-17T09:21:25.655Z,65.43
2018-12-17T09:22:25.832Z,63.96
2018-12-17T09:23:26.011Z,58.35
2018-12-17T09:24:26.188Z,62.50
2018-12-17T09:25:26.361Z,80.08
2018-12-17T09:26:26.522Z,71.78
2018-12-17T09:27:26.704Z,71.53
2018-12-17T09:28:26.875Z,59.57
2018-12-17T09:29:27.038Z,76.66
2018-12-17T09:30:27.212Z,72.27
2018-12-17T09:31:27.384Z,66.65
2018-12-17T09:32:27.557Z,57.62
2018-12-17T09:33:28.706Z,62.26
2018-12-17T09:34:27.898Z,64.70
2018-12-17T09:35:28.070Z,84.47
2018-12-17T09:36:28.244Z,62.50
2018-12-17T09:37:28.415Z,66.65
2018-12-17T09:38:28.586Z,57.86
2018-12-17T09:39:28.767Z,67.14
2018-12-17T09:40:28.932Z,67.38
2018-12-17T09:41:29.105Z,67.14
2018-12-17T09:42:29.282Z,79.10
2018-12-17T09:43:29.455Z,67.38
2018-12-17T09:44:29.625Z,61.77
2018-12-17T09:45:29.799Z,70.56
2018-12-17T09:46:29.969Z,64.45
2018-12-17T09:47:30.144Z,65.43
2018-12-17T09:48:30.314Z,68.12
2018-12-17T09:49:30.487Z,64.94
2018-12-17T09:50:30.668Z,59.81
2018-12-17T09:51:30.839Z,57.13
2018-12-17T09:52:31.013Z,63.96
2018-12-17T09:53:31.184Z,63.72
2018-12-17T09:54:31.357Z,77.15
2018-12-17T09:55:31.529Z,66.16
2018-12-17T09:56:31.696Z,68.36
2018-12-17T09:57:31.874Z,70.07
2018-12-17T09:58:32.035Z,64.70
2018-12-17T09:59:32.207Z,66.65
2018-12-17T10:00:32.386Z,72.27
2018-12-17T10:01:32.553Z,62.50
2018-12-17T10:02:32.726Z,63.23
2018-12-17T10:03:32.892Z,62.99
2018-12-17T10:04:33.082Z,66.89
2018-12-17T10:05:33.245Z,62.99
2018-12-17T10:06:33.423Z,66.65
2018-12-17T10:07:33.595Z,68.12
2018-12-17T10:08:33.759Z,68.12
2018-12-17T10:09:33.937Z,68.60
2018-12-17T10:10:34.100Z,67.63
2018-12-17T10:11:34.270Z,66.65
2018-12-17T10:12:34.441Z,72.75
2018-12-17T10:13:34.617Z,72.51
2018-12-17T10:14:34.788Z,63.48
2018-12-17T10:15:34.960Z,70.56
2018-12-17T10:16:35.138Z,62.50
2018-12-17T10:17:35.305Z,65.67
2018-12-17T10:18:37.031Z,67.87
2018-12-17T10:19:35.667Z,64.45
2018-12-17T10:20:35.823Z,64.45
2018-12-17T10:21:36.000Z,64.45
2018-12-17T10:22:36.174Z,62.99
2018-12-17T10:23:36.340Z,65.43
2018-12-17T10:24:36.512Z,58.11
2018-12-17T10:25:36.673Z,60.79
2018-12-17T10:26:36.850Z,65.19
2018-12-17T10:27:37.016Z,71.29
2018-12-17T10:28:37.190Z,75.44
2018-12-17T10:29:37.373Z,81.54
2018-12-17T10:30:37.534Z,73.24
2018-12-17T10:31:37.708Z,64.45
2018-12-17T10:32:37.881Z,59.33
2018-12-17T10:33:38.048Z,65.67
2018-12-17T10:34:38.224Z,65.19
2018-12-17T10:35:38.393Z,68.36
2018-12-17T10:36:38.573Z,61.77
2018-12-17T10:37:38.737Z,65.67
2018-12-17T10:38:38.909Z,73.00
2018-12-17T10:39:39.084Z,63.72
2018-12-17T10:40:39.257Z,67.38
2018-12-17T10:41:39.427Z,67.87
2018-12-17T10:42:39.604Z,71.04
2018-12-17T10:43:39.775Z,63.48
2018-12-17T10:44:39.978Z,62.26
2018-12-17T10:45:40.114Z,73.24
2018-12-17T10:46:40.289Z,60.30
2018-12-17T10:47:40.450Z,63.48
2018-12-17T10:48:40.623Z,68.12
2018-12-17T10:49:40.795Z,72.75
2018-12-17T10:50:40.968Z,74.46
2018-12-17T10:51:41.141Z,75.20
2018-12-17T10:52:41.317Z,76.17
2018-12-17T10:53:41.488Z,71.29
2018-12-17T10:54:41.653Z,70.56
2018-12-17T10:55:41.824Z,73.00
2018-12-17T10:56:41.993Z,71.04
2018-12-17T10:57:42.169Z,62.26
2018-12-17T10:58:42.346Z,63.48
2018-12-17T10:59:42.513Z,67.87
2018-12-17T11:00:43.412Z,71.78
2018-12-17T11:01:42.859Z,85.21
2018-12-17T11:02:43.030Z,85.69
2018-12-17T11:03:43.206Z,84.23
2018-12-17T11:04:43.380Z,84.23
2018-12-17T11:05:43.557Z,85.69
2018-12-17T11:06:43.759Z,84.72
2018-12-17T11:07:43.885Z,62.01
2018-12-17T11:08:44.128Z,66.16
2018-12-17T11:09:44.241Z,67.87
2018-12-17T11:10:44.408Z,62.99
2018-12-17T11:11:44.612Z,62.99
2018-12-17T11:12:44.755Z,60.55
2018-12-17T11:13:44.958Z,63.23
2018-12-17T11:14:45.213Z,59.33
2018-12-17T11:15:45.302Z,74.22
2018-12-17T11:16:45.502Z,61.52
2018-12-17T11:17:45.674Z,61.28
2018-12-17T11:18:45.834Z,62.50
2018-12-17T11:19:46.028Z,61.04
2018-12-17T11:20:46.204Z,61.04
2018-12-17T11:21:46.392Z,58.84
2018-12-17T11:22:46.518Z,62.74
2018-12-17T11:23:46.696Z,60.79
2018-12-17T11:24:46.869Z,69.09
2018-12-17T11:25:47.028Z,66.89
2018-12-17T11:26:47.204Z,61.52
2018-12-17T11:27:47.369Z,66.41
2018-12-17T11:28:47.532Z,56.40
2018-12-17T11:29:47.716Z,65.67
2018-12-17T11:30:47.868Z,71.29
2018-12-17T11:31:48.038Z,63.72
2018-12-17T11:32:48.208Z,64.21
2018-12-17T11:33:48.339Z,67.38
2018-12-17T11:34:48.534Z,65.67
2018-12-17T11:35:48.741Z,66.65
2018-12-17T11:36:48.929Z,59.81
2018-12-17T11:37:49.073Z,62.74
2018-12-17T11:38:49.246Z,62.74
2018-12-17T11:39:49.454Z,66.16
2018-12-17T11:40:49.684Z,68.60
2018-12-17T11:41:49.732Z,67.87
2018-12-17T11:42:49.932Z,64.94
2018-12-17T11:43:50.101Z,73.24
2018-12-17T11:44:50.260Z,66.16
2018-12-17T11:45:50.437Z,70.56
2018-12-17T11:46:50.611Z,64.21
2018-12-17T11:47:50.769Z,62.26
2018-12-17T11:48:50.941Z,62.50
2018-12-17T11:49:51.123Z,60.79
2018-12-17T11:50:51.288Z,65.43
2018-12-17T11:51:51.458Z,67.14
2018-12-17T11:52:51.632Z,68.85
2018-12-17T11:53:51.809Z,63.72
2018-12-17T11:54:51.972Z,66.65
2018-12-17T11:55:52.138Z,69.34
2018-12-17T11:56:52.314Z,66.41
2018-12-17T11:57:52.489Z,64.21
2018-12-17T11:58:52.667Z,62.74
2018-12-17T11:59:52.837Z,64.45
2018-12-17T12:00:53.978Z,75.44
2018-12-17T12:01:53.177Z,66.16
2018-12-17T12:02:59.126Z,63.23
2018-12-17T12:03:53.520Z,62.01
2018-12-17T12:04:53.693Z,60.55
2018-12-17T12:05:53.868Z,61.52
2018-12-17T12:06:54.043Z,60.79
2018-12-17T12:07:54.214Z,60.55
2018-12-17T12:08:54.386Z,66.16
2018-12-17T12:09:54.559Z,75.20
2018-12-17T12:10:54.740Z,68.12
2018-12-17T12:11:54.908Z,61.28
2018-12-17T12:12:55.082Z,75.68
2018-12-17T12:13:55.250Z,68.36
2018-12-17T12:14:55.419Z,68.60
2018-12-17T12:15:55.591Z,70.56
2018-12-17T12:16:55.764Z,62.99
2018-12-17T12:17:56.007Z,61.77
2018-12-17T12:18:56.178Z,64.45
2018-12-17T12:19:56.354Z,66.89
2018-12-17T12:20:56.517Z,64.70
2018-12-17T12:21:56.697Z,66.41
2018-12-17T12:22:56.869Z,64.45
2018-12-17T12:23:57.040Z,62.50
2018-12-17T12:24:57.210Z,62.74
2018-12-17T12:25:57.563Z,71.04
2018-12-17T12:26:57.536Z,66.89
2018-12-17T12:27:57.717Z,64.70
2018-12-17T12:28:57.884Z,63.72
2018-12-17T12:29:58.065Z,68.12
2018-12-17T12:31:00.595Z,70.07
2018-12-17T12:31:58.387Z,60.79
2018-12-17T12:32:58.557Z,56.88
2018-12-17T12:33:59.534Z,67.87
2018-12-17T12:34:58.944Z,60.79
2018-12-17T12:35:59.115Z,67.14
2018-12-17T12:36:59.288Z,67.38
2018-12-17T12:37:59.460Z,61.28
2018-12-17T12:38:59.629Z,64.21
2018-12-17T12:39:59.803Z,79.35
2018-12-17T12:40:59.974Z,67.87
2018-12-17T12:42:00.145Z,60.79
2018-12-17T12:43:00.312Z,68.36
2018-12-17T12:44:00.480Z,59.81
2018-12-17T12:45:00.664Z,61.77
2018-12-17T12:46:00.836Z,68.85
2018-12-17T12:47:01.006Z,63.48
2018-12-17T12:48:01.169Z,62.01
2018-12-17T12:49:01.341Z,59.33
2018-12-17T12:50:01.518Z,65.43
2018-12-17T12:51:01.692Z,70.80
2018-12-17T12:52:01.870Z,63.23
2018-12-17T12:53:02.026Z,71.29
2018-12-17T12:54:02.204Z,64.70
2018-12-17T12:55:02.375Z,66.16
2018-12-17T12:56:02.539Z,60.30
2018-12-17T12:57:02.709Z,59.08
2018-12-17T12:58:03.734Z,57.62